createdAt,value
2023-03-02T00:01:33.155Z,6.10
2023-03-02T00:04:03.365Z,5.83
2023-03-02T00:06:32.685Z,5.60
2023-03-02T00:09:00.891Z,5.80
2023-03-02T00:11:30.506Z,5.30
2023-03-02T00:13:57.711Z,5.50
2023-03-02T00:16:24.646Z,5.63
2023-03-02T00:18:51.650Z,4.93
2023-03-02T00:21:18.402Z,5.90
2023-03-02T00:23:45.226Z,6.00
2023-03-02T00:26:12.091Z,5.63
2023-03-02T00:28:38.935Z,5.90
2023-03-02T00:31:06.531Z,5.70
2023-03-02T00:33:34.303Z,5.80
2023-03-02T00:36:02.228Z,5.90
2023-03-02T00:38:29.273Z,5.87
2023-03-02T00:40:56.368Z,5.57
2023-03-02T00:43:27.382Z,5.30
2023-03-02T00:45:55.339Z,6.00
2023-03-02T00:48:22.822Z,5.90
2023-03-02T00:50:49.573Z,6.00
2023-03-02T00:53:17.953Z,6.23
2023-03-02T00:55:53.877Z,6.07
2023-03-02T00:58:21.619Z,4.90
2023-03-02T01:00:48.798Z,5.33
2023-03-02T01:03:15.774Z,6.30
2023-03-02T01:05:42.539Z,5.57
2023-03-02T01:08:09.313Z,6.30
2023-03-02T01:10:37.547Z,5.40
2023-03-02T01:13:04.579Z,6.77
2023-03-02T01:15:31.449Z,6.00
2023-03-02T01:17:59.760Z,5.20
2023-03-02T01:20:27.457Z,6.17
2023-03-02T01:22:54.160Z,5.40
2023-03-02T01:25:20.980Z,5.20
2023-03-02T01:27:47.911Z,4.93
2023-03-02T01:30:15.087Z,5.50
2023-03-02T01:32:41.872Z,5.60
2023-03-02T01:35:09.136Z,5.73
2023-03-02T01:37:35.911Z,6.00
2023-03-02T01:40:06.469Z,5.77
2023-03-02T01:42:45.371Z,5.20
2023-03-02T01:45:48.253Z,5.23
2023-03-02T01:48:20.214Z,5.30
2023-03-02T01:50:47.460Z,6.10
2023-03-02T01:53:16.494Z,5.53
2023-03-02T01:55:44.733Z,4.67
2023-03-02T01:58:13.902Z,5.40
2023-03-02T02:00:41.575Z,6.13
2023-03-02T02:03:30.002Z,6.07
2023-03-02T02:06:23.144Z,5.80
2023-03-02T02:08:52.489Z,5.27
2023-03-02T02:11:19.526Z,5.40
2023-03-02T02:13:46.726Z,5.30
2023-03-02T02:16:13.744Z,5.53
2023-03-02T02:18:42.168Z,5.80
2023-03-02T02:21:09.594Z,5.97
2023-03-02T02:24:13.671Z,5.50
2023-03-02T02:26:55.178Z,5.93
2023-03-02T02:29:27.826Z,4.77
2023-03-02T02:32:12.973Z,5.90
2023-03-02T02:34:45.427Z,5.07
2023-03-02T02:37:17.036Z,5.13
2023-03-02T02:39:47.872Z,5.77
2023-03-02T02:42:36.964Z,4.73
2023-03-02T02:45:08.265Z,4.90
2023-03-02T02:47:35.647Z,5.17
2023-03-02T02:50:02.627Z,5.50
2023-03-02T02:52:29.598Z,6.20
2023-03-02T02:54:58.584Z,4.37
2023-03-02T02:57:28.118Z,4.67
2023-03-02T02:59:59.005Z,4.80
2023-03-02T03:02:28.655Z,4.70
2023-03-02T03:05:03.044Z,4.90
2023-03-02T03:07:31.751Z,4.60
2023-03-02T03:10:08.828Z,5.13
2023-03-02T03:12:36.000Z,5.67
2023-03-02T03:15:03.718Z,5.03
2023-03-02T03:17:30.474Z,5.03
2023-03-02T03:20:06.218Z,5.30
2023-03-02T03:22:36.163Z,5.30
2023-03-02T03:25:03.438Z,4.67
2023-03-02T03:27:30.399Z,4.80
2023-03-02T03:29:57.096Z,5.00
2023-03-02T03:32:23.926Z,4.90
2023-03-02T03:34:50.699Z,5.53
2023-03-02T03:37:19.428Z,5.77
2023-03-02T03:39:47.088Z,5.10
2023-03-02T03:42:14.033Z,4.83
2023-03-02T03:44:41.059Z,4.90
2023-03-02T03:47:07.931Z,6.07
2023-03-02T03:49:34.728Z,5.60
2023-03-02T03:52:01.482Z,5.10
2023-03-02T03:54:28.413Z,5.37
2023-03-02T03:56:55.169Z,4.43
2023-03-02T03:59:24.467Z,5.17
2023-03-02T04:01:56.950Z,4.30
2023-03-02T04:04:26.656Z,5.10
2023-03-02T04:06:54.197Z,4.63
2023-03-02T04:09:22.431Z,5.20
2023-03-02T04:11:51.778Z,5.33
2023-03-02T04:14:19.575Z,4.37
2023-03-02T04:16:46.782Z,5.63
2023-03-02T04:19:14.673Z,5.20
2023-03-02T04:21:47.395Z,5.03
2023-03-02T04:24:15.248Z,4.30
2023-03-02T04:29:20.916Z,4.90
2023-03-02T04:31:48.526Z,4.67
2023-03-02T04:34:15.473Z,5.37
2023-03-02T04:36:42.340Z,4.00
2023-03-02T04:39:10.504Z,3.90
2023-03-02T04:41:38.362Z,4.33
2023-03-02T04:44:05.220Z,4.33
2023-03-02T04:46:33.060Z,3.80
2023-03-02T04:49:00.426Z,4.73
2023-03-02T04:51:30.287Z,3.10
2023-03-02T04:54:01.243Z,4.10
2023-03-02T04:56:28.539Z,4.10
2023-03-02T04:58:56.302Z,4.80
2023-03-02T05:01:23.663Z,4.70
2023-03-02T05:03:50.553Z,4.30
2023-03-02T05:06:17.763Z,4.23
2023-03-02T05:08:45.289Z,4.40
2023-03-02T05:11:22.562Z,4.70
2023-03-02T05:13:51.224Z,4.33
2023-03-02T05:16:18.908Z,4.43
2023-03-02T05:18:48.969Z,4.47
2023-03-02T05:21:17.020Z,3.97
2023-03-02T05:23:45.862Z,4.73
2023-03-02T05:26:17.540Z,4.23
2023-03-02T05:28:45.583Z,4.50
2023-03-02T05:31:23.326Z,4.97
2023-03-02T05:33:50.248Z,4.50
2023-03-02T05:36:19.482Z,4.53
2023-03-02T05:38:47.210Z,4.97
2023-03-02T05:41:14.224Z,4.13
2023-03-02T05:43:41.094Z,4.00
2023-03-02T05:46:07.831Z,5.33
2023-03-02T05:48:34.712Z,4.17
2023-03-02T05:51:01.561Z,4.77
2023-03-02T05:53:28.304Z,3.93
2023-03-02T05:55:55.105Z,4.87
2023-03-02T05:58:22.133Z,2.83
2023-03-02T06:00:49.196Z,5.27
2023-03-02T06:03:16.548Z,4.37
2023-03-02T06:05:43.323Z,4.33
2023-03-02T06:08:10.091Z,3.30
2023-03-02T06:10:36.812Z,4.70
2023-03-02T06:13:03.749Z,3.97
2023-03-02T06:15:30.481Z,5.20
2023-03-02T06:17:57.841Z,3.67
2023-03-02T06:20:24.659Z,4.60
2023-03-02T06:22:51.528Z,4.37
2023-03-02T06:25:21.047Z,5.57
2023-03-02T06:27:51.606Z,4.23
2023-03-02T06:30:23.386Z,4.93
2023-03-02T06:32:50.494Z,4.00
2023-03-02T06:35:17.643Z,3.50
2023-03-02T06:37:44.883Z,4.30
2023-03-02T06:40:13.615Z,5.43
2023-03-02T06:42:42.087Z,4.70
2023-03-02T06:45:09.967Z,4.93
2023-03-02T06:47:36.926Z,4.00
2023-03-02T06:50:04.649Z,3.87
2023-03-02T06:52:31.573Z,4.67
2023-03-02T06:54:58.408Z,5.10
2023-03-02T06:57:25.213Z,4.40
2023-03-02T06:59:51.981Z,3.97
2023-03-02T07:02:18.769Z,4.77
2023-03-02T07:04:45.542Z,4.27
2023-03-02T07:07:12.242Z,4.77
2023-03-02T07:09:39.093Z,4.80
2023-03-02T07:12:06.136Z,4.60
2023-03-02T07:14:36.515Z,4.03
2023-03-02T07:17:05.284Z,4.43
2023-03-02T07:19:32.122Z,4.67
2023-03-02T07:21:58.808Z,4.70
2023-03-02T07:24:25.513Z,3.90
2023-03-02T07:29:23.172Z,5.50
2023-03-02T07:31:55.679Z,4.23
2023-03-02T07:34:25.714Z,4.33
2023-03-02T07:36:53.004Z,4.60
2023-03-02T07:39:20.354Z,4.07
2023-03-02T07:41:47.039Z,4.63
2023-03-02T07:44:13.923Z,4.57
2023-03-02T07:46:40.668Z,4.53
2023-03-02T07:49:07.424Z,5.87
2023-03-02T07:51:34.442Z,4.20
2023-03-02T07:54:02.923Z,4.63
2023-03-02T07:56:29.806Z,5.30
2023-03-02T07:58:56.610Z,5.33
2023-03-02T08:01:23.417Z,5.20
2023-03-02T08:03:50.359Z,4.40
2023-03-02T08:06:17.180Z,5.23
2023-03-02T08:08:43.935Z,4.57
2023-03-02T08:11:16.784Z,5.20
2023-03-02T08:13:44.505Z,4.50
2023-03-02T08:16:13.696Z,4.40
2023-03-02T08:18:41.578Z,4.83
2023-03-02T08:21:17.967Z,4.60
2023-03-02T08:23:45.518Z,5.00
2023-03-02T08:26:15.246Z,4.60
2023-03-02T08:28:44.335Z,5.20
2023-03-02T08:31:12.102Z,4.20
2023-03-02T08:33:38.958Z,4.20
2023-03-02T08:36:08.871Z,4.27
2023-03-02T08:38:36.021Z,4.90
2023-03-02T08:41:06.673Z,4.50
2023-03-02T08:43:34.097Z,5.30
2023-03-02T08:46:01.551Z,5.00
2023-03-02T08:48:28.759Z,4.90
2023-03-02T08:50:59.581Z,5.30
2023-03-02T08:53:27.735Z,4.50
2023-03-02T08:55:55.251Z,4.83
2023-03-02T08:58:22.306Z,4.10
2023-03-02T09:00:52.200Z,4.40
2023-03-02T09:03:19.090Z,5.50
2023-03-02T09:05:46.018Z,4.90
2023-03-02T09:08:13.261Z,5.37
2023-03-02T09:10:40.038Z,3.30
2023-03-02T09:13:08.574Z,6.07
2023-03-02T09:15:35.719Z,6.00
2023-03-02T09:18:02.487Z,4.50
2023-03-02T09:20:29.376Z,4.77
2023-03-02T09:22:56.146Z,4.57
2023-03-02T09:25:22.888Z,4.80
2023-03-02T09:27:49.721Z,4.87
2023-03-02T09:30:16.660Z,4.17
2023-03-02T09:32:43.691Z,5.00
2023-03-02T09:35:11.150Z,5.17
2023-03-02T09:37:39.027Z,5.50
2023-03-02T09:40:17.222Z,5.20
2023-03-02T09:43:20.676Z,5.00
2023-03-02T09:46:15.058Z,5.50
2023-03-02T09:48:56.908Z,5.00
2023-03-02T09:51:44.656Z,5.80
2023-03-02T09:54:21.784Z,5.80
2023-03-02T09:56:57.762Z,5.37
2023-03-02T09:59:28.857Z,5.07
2023-03-02T10:02:01.911Z,4.87
2023-03-02T10:04:33.422Z,5.40
2023-03-02T10:07:13.817Z,5.73
2023-03-02T10:09:41.939Z,5.73
2023-03-02T10:12:41.444Z,5.97
2023-03-02T10:15:18.262Z,6.00
2023-03-02T10:17:58.300Z,4.50
2023-03-02T10:20:34.654Z,5.97
2023-03-02T10:23:27.326Z,5.10
2023-03-02T10:26:02.241Z,5.70
2023-03-02T10:28:34.242Z,6.30
2023-03-02T10:31:23.884Z,5.43
2023-03-02T10:33:50.691Z,4.90
2023-03-02T10:36:26.319Z,5.97
2023-03-02T10:39:03.284Z,5.13
2023-03-02T10:41:49.557Z,5.73
2023-03-02T10:44:23.027Z,4.77
2023-03-02T10:46:51.277Z,6.10
2023-03-02T10:49:30.917Z,6.10
2023-03-02T10:52:12.078Z,7.07
2023-03-02T10:54:38.936Z,6.33
2023-03-02T10:57:37.060Z,5.37
2023-03-02T11:00:18.113Z,5.27
2023-03-02T11:02:56.954Z,5.43
2023-03-02T11:05:29.593Z,5.87
2023-03-02T11:08:03.212Z,5.80
2023-03-02T11:10:36.712Z,5.40
2023-03-02T11:13:17.112Z,5.50
2023-03-02T11:15:49.057Z,6.00
2023-03-02T11:18:35.580Z,5.20
2023-03-02T11:21:06.078Z,5.87
2023-03-02T11:23:40.539Z,5.43
2023-03-02T11:26:23.284Z,5.97
2023-03-02T11:29:03.086Z,6.37
2023-03-02T11:31:41.509Z,6.30
2023-03-02T11:34:28.915Z,6.20
2023-03-02T11:37:18.307Z,6.50
2023-03-02T11:39:54.944Z,6.40
2023-03-02T11:42:30.696Z,6.57
2023-03-02T11:45:02.412Z,5.50
2023-03-02T11:47:33.308Z,6.17
2023-03-02T11:50:05.402Z,7.07
2023-03-02T11:52:36.533Z,6.00
2023-03-02T11:55:15.855Z,6.30
2023-03-02T11:57:49.554Z,6.43
2023-03-02T12:00:36.956Z,6.13
2023-03-02T12:03:15.831Z,5.20
2023-03-02T12:06:25.491Z,5.90
2023-03-02T12:09:06.541Z,6.17
2023-03-02T12:11:40.322Z,6.47
2023-03-02T12:14:28.906Z,5.73
2023-03-02T12:17:06.287Z,6.40
2023-03-02T12:19:42.099Z,6.47
2023-03-02T12:22:12.483Z,6.70
2023-03-02T12:24:42.036Z,6.40
2023-03-02T12:27:20.911Z,6.83
2023-03-02T12:30:10.363Z,6.60
2023-03-02T12:32:37.670Z,6.50
2023-03-02T12:35:07.294Z,6.70
2023-03-02T12:38:01.282Z,6.77
2023-03-02T12:40:49.506Z,6.93
2023-03-02T12:43:36.566Z,5.83
2023-03-02T12:46:06.036Z,7.10
2023-03-02T12:48:58.629Z,6.50
2023-03-02T12:51:29.373Z,6.50
2023-03-02T12:54:23.872Z,5.40
2023-03-02T12:57:02.065Z,6.70
2023-03-02T12:59:30.023Z,6.60
2023-03-02T13:02:16.643Z,6.57
2023-03-02T13:04:43.904Z,5.13
2023-03-02T13:07:24.256Z,6.40
2023-03-02T13:09:57.212Z,5.83
2023-03-02T13:12:27.278Z,6.57
2023-03-02T13:14:57.555Z,6.80
2023-03-02T13:17:29.683Z,7.00
2023-03-02T13:20:00.873Z,6.30
2023-03-02T13:22:28.533Z,5.93
2023-03-02T13:25:08.139Z,6.37
2023-03-02T13:27:35.390Z,6.57
2023-03-02T13:30:11.090Z,6.63
2023-03-02T13:32:43.415Z,5.33
2023-03-02T13:35:38.056Z,6.20
2023-03-02T13:38:14.028Z,6.70
2023-03-02T13:40:44.741Z,4.83
2023-03-02T13:43:29.942Z,6.40
2023-03-02T13:46:17.932Z,5.53
2023-03-02T13:49:10.179Z,5.67
2023-03-02T13:51:43.944Z,6.10
2023-03-02T13:54:28.271Z,7.00
2023-03-02T13:56:58.798Z,5.70
2023-03-02T13:59:25.793Z,5.83
2023-03-02T14:01:52.768Z,4.57
2023-03-02T14:04:23.319Z,4.80
2023-03-02T14:06:51.593Z,5.27
2023-03-02T14:09:18.593Z,5.73
2023-03-02T14:11:48.925Z,5.90
2023-03-02T14:14:24.793Z,6.00
2023-03-02T14:16:51.695Z,5.20
2023-03-02T14:19:18.737Z,5.43
2023-03-02T14:21:46.678Z,5.43
2023-03-02T14:24:13.638Z,8.27
2023-03-02T14:29:26.990Z,5.23
2023-03-02T14:31:55.455Z,5.53
2023-03-02T14:34:22.453Z,5.50
2023-03-02T14:36:53.647Z,4.57
2023-03-02T14:39:23.814Z,5.67
2023-03-02T14:41:54.086Z,5.50
2023-03-02T14:44:22.023Z,6.00
2023-03-02T14:46:49.122Z,5.40
2023-03-02T14:49:15.936Z,5.57
2023-03-02T14:51:45.003Z,5.77
2023-03-02T14:54:18.167Z,4.60
2023-03-02T14:56:45.456Z,5.03
2023-03-02T14:59:15.365Z,4.43
2023-03-02T15:01:44.662Z,5.77
2023-03-02T15:04:11.594Z,4.20
2023-03-02T15:06:41.209Z,4.50
2023-03-02T15:09:08.646Z,4.87
2023-03-02T15:11:35.869Z,4.97
2023-03-02T15:14:02.694Z,4.83
2023-03-02T15:16:29.583Z,3.67
2023-03-02T15:18:58.746Z,5.10
2023-03-02T15:21:26.749Z,3.17
2023-03-02T15:23:53.604Z,5.20
2023-03-02T15:26:20.340Z,5.03
2023-03-02T15:28:51.333Z,4.50
2023-03-02T15:31:18.900Z,4.20
2023-03-02T15:33:46.703Z,4.73
2023-03-02T15:36:14.324Z,5.30
2023-03-02T15:38:41.202Z,5.33
2023-03-02T15:41:12.006Z,4.67
2023-03-02T15:43:39.039Z,4.90
2023-03-02T15:46:06.909Z,4.70
2023-03-02T15:48:33.693Z,5.00
2023-03-02T15:51:02.898Z,4.30
2023-03-02T15:53:30.325Z,4.87
2023-03-02T15:55:57.314Z,4.70
2023-03-02T15:58:24.136Z,5.27
2023-03-02T16:00:53.672Z,5.50
2023-03-02T16:03:22.560Z,4.77
2023-03-02T16:05:49.644Z,6.27
2023-03-02T16:08:16.635Z,5.60
2023-03-02T16:10:43.516Z,5.50
2023-03-02T16:13:13.373Z,6.13
2023-03-02T16:15:41.411Z,7.17
2023-03-02T16:18:09.228Z,6.23
2023-03-02T16:20:37.572Z,6.60
2023-03-02T16:23:06.118Z,5.47
2023-03-02T16:25:34.602Z,5.87
2023-03-02T16:28:04.638Z,6.20
2023-03-02T16:30:31.930Z,6.97
2023-03-02T16:33:00.291Z,7.27
2023-03-02T16:35:28.795Z,7.70
2023-03-02T16:37:56.028Z,6.50
2023-03-02T16:40:22.987Z,7.03
2023-03-02T16:42:51.103Z,7.10
2023-03-02T16:45:19.684Z,6.80
2023-03-02T16:47:47.030Z,8.83
2023-03-02T16:50:15.256Z,9.67
2023-03-02T16:52:42.409Z,9.53
2023-03-02T16:55:14.618Z,7.77
2023-03-02T16:57:41.868Z,8.17
2023-03-02T17:00:10.726Z,8.30
2023-03-02T17:02:37.558Z,7.50
2023-03-02T17:05:04.478Z,8.30
2023-03-02T17:07:31.259Z,7.07
2023-03-02T17:09:58.270Z,8.10
2023-03-02T17:12:25.141Z,9.10
2023-03-02T17:14:51.858Z,8.90
2023-03-02T17:17:18.893Z,8.60
2023-03-02T17:19:45.757Z,9.80
2023-03-02T17:22:12.797Z,8.03
2023-03-02T17:24:39.623Z,8.33
2023-03-02T17:27:15.866Z,9.03
2023-03-02T17:29:49.402Z,7.90
2023-03-02T17:32:16.224Z,9.03
2023-03-02T17:34:43.454Z,9.07
2023-03-02T17:37:10.397Z,9.07
2023-03-02T17:39:38.334Z,8.60
2023-03-02T17:42:05.651Z,8.00
2023-03-02T17:44:34.556Z,8.60
2023-03-02T17:47:03.958Z,8.27
2023-03-02T17:49:31.231Z,9.20
2023-03-02T17:51:58.103Z,10.27
2023-03-02T17:54:24.921Z,8.63
2023-03-02T17:56:51.599Z,9.70
2023-03-02T17:59:18.439Z,10.40
2023-03-02T18:01:45.196Z,9.23
2023-03-02T18:04:11.980Z,10.73
2023-03-02T18:06:38.759Z,10.30
2023-03-02T18:09:05.888Z,10.23
2023-03-02T18:11:33.201Z,11.00
2023-03-02T18:14:00.263Z,9.23
2023-03-02T18:16:29.205Z,11.30
2023-03-02T18:18:57.377Z,10.10
2023-03-02T18:21:24.282Z,10.17
2023-03-02T18:23:51.083Z,9.23
2023-03-02T18:26:17.844Z,10.37
2023-03-02T18:28:44.757Z,10.50
2023-03-02T18:31:14.540Z,10.70
2023-03-02T18:33:41.372Z,11.20
2023-03-02T18:36:08.477Z,9.40
2023-03-02T18:38:36.468Z,10.50
2023-03-02T18:41:05.468Z,11.17
2023-03-02T18:43:34.766Z,9.47
2023-03-02T18:46:04.336Z,9.53
2023-03-02T18:48:32.758Z,8.60
2023-03-02T18:50:59.898Z,10.80
2023-03-02T18:53:27.015Z,10.20
2023-03-02T18:55:56.859Z,10.43
2023-03-02T18:58:25.563Z,8.83
2023-03-02T19:00:54.070Z,9.57
2023-03-02T19:03:21.014Z,9.30
2023-03-02T19:05:47.829Z,10.47
2023-03-02T19:08:14.583Z,11.10
2023-03-02T19:10:42.457Z,11.00
2023-03-02T19:13:11.688Z,9.47
2023-03-02T19:15:42.852Z,12.03
2023-03-02T19:18:28.415Z,11.33
2023-03-02T19:20:55.813Z,10.43
2023-03-02T19:23:23.440Z,10.73
2023-03-02T19:25:50.714Z,9.67
2023-03-02T19:28:17.501Z,9.63
2023-03-02T19:30:44.526Z,9.90
2023-03-02T19:33:11.293Z,8.90
2023-03-02T19:35:38.647Z,11.77
2023-03-02T19:38:07.083Z,10.17
2023-03-02T19:40:34.639Z,9.90
2023-03-02T19:43:02.038Z,10.73
2023-03-02T19:45:32.454Z,10.10
2023-03-02T19:48:00.661Z,10.57
2023-03-02T19:50:28.359Z,10.40
2023-03-02T19:52:56.230Z,11.00
2023-03-02T19:55:24.312Z,10.83
2023-03-02T19:57:56.646Z,11.47
2023-03-02T20:00:24.201Z,10.57
2023-03-02T20:02:50.953Z,11.80
2023-03-02T20:05:18.230Z,12.20
2023-03-02T20:07:45.169Z,12.10
2023-03-02T20:10:26.850Z,11.73
2023-03-02T20:12:53.924Z,10.13
2023-03-02T20:15:20.726Z,11.83
2023-03-02T20:17:47.516Z,11.50
2023-03-02T20:20:15.111Z,12.67
2023-03-02T20:22:41.868Z,13.73
2023-03-02T20:25:09.242Z,12.20
2023-03-02T20:27:36.047Z,15.73
2023-03-02T20:30:04.274Z,12.27
2023-03-02T20:32:31.070Z,14.50
2023-03-02T20:34:58.377Z,13.57
2023-03-02T20:37:26.172Z,15.07
2023-03-02T20:39:53.969Z,14.60
2023-03-02T20:42:21.303Z,14.47
2023-03-02T20:44:48.168Z,13.80
2023-03-02T20:47:16.317Z,14.17
2023-03-02T20:49:43.213Z,14.43
2023-03-02T20:52:10.992Z,14.50
2023-03-02T20:54:42.140Z,12.20
2023-03-02T20:57:09.454Z,15.03
2023-03-02T20:59:37.682Z,16.17
2023-03-02T21:02:05.374Z,14.60
2023-03-02T21:04:33.311Z,15.20
2023-03-02T21:07:00.133Z,16.03
2023-03-02T21:09:27.018Z,15.80
2023-03-02T21:11:54.329Z,14.83
2023-03-02T21:14:21.205Z,15.70
2023-03-02T21:16:48.232Z,14.57
2023-03-02T21:19:18.100Z,15.20
2023-03-02T21:21:45.146Z,16.33
2023-03-02T21:24:16.748Z,16.23
2023-03-02T21:26:46.655Z,15.83
2023-03-02T21:29:13.843Z,17.70
2023-03-02T21:31:42.712Z,16.03
2023-03-02T21:34:12.310Z,16.97
2023-03-02T21:36:39.661Z,17.90
2023-03-02T21:39:07.873Z,18.53
2023-03-02T21:41:38.286Z,17.47
2023-03-02T21:44:06.260Z,17.20
2023-03-02T21:46:35.431Z,17.30
2023-03-02T21:49:02.831Z,18.33
2023-03-02T21:51:29.847Z,19.53
2023-03-02T21:53:56.623Z,17.50
2023-03-02T21:56:25.202Z,17.73
2023-03-02T21:58:55.587Z,19.07
2023-03-02T22:01:23.459Z,17.50
2023-03-02T22:03:50.558Z,18.53
2023-03-02T22:16:58.482Z,21.87
2023-03-02T22:19:30.968Z,20.27
2023-03-02T22:22:00.234Z,22.27
2023-03-02T22:24:32.123Z,21.27
2023-03-02T22:27:02.416Z,20.20
2023-03-02T22:29:35.083Z,21.03
2023-03-02T22:32:24.459Z,20.10
2023-03-02T22:34:56.741Z,19.87
2023-03-02T22:37:28.881Z,21.10
2023-03-02T22:40:00.217Z,22.10
2023-03-02T22:42:30.087Z,21.60
2023-03-02T22:45:06.595Z,23.17
2023-03-02T22:47:33.428Z,23.80
2023-03-02T22:50:20.647Z,24.07
2023-03-02T22:52:47.537Z,24.07
2023-03-02T22:55:40.322Z,22.83
2023-03-02T22:58:25.870Z,20.70
2023-03-02T23:00:53.009Z,24.57
2023-03-02T23:03:33.077Z,28.63
2023-03-02T23:05:59.867Z,32.60
2023-03-02T23:08:30.641Z,28.00
2023-03-02T23:10:58.872Z,27.00
2023-03-02T23:13:45.520Z,28.50
2023-03-02T23:16:35.195Z,27.27
2023-03-02T23:19:03.949Z,23.70
2023-03-02T23:21:45.149Z,25.97
2023-03-02T23:24:12.417Z,23.27
2023-03-02T23:26:39.681Z,26.37
2023-03-02T23:29:06.665Z,26.80
2023-03-02T23:31:33.858Z,25.97
2023-03-02T23:34:00.857Z,25.23
2023-03-02T23:36:27.905Z,27.70
2023-03-02T23:38:54.688Z,30.67
2023-03-02T23:41:21.940Z,32.30
2023-03-02T23:43:48.723Z,29.97
2023-03-02T23:46:15.679Z,28.40
2023-03-02T23:48:42.989Z,27.93
2023-03-02T23:51:10.253Z,30.37
2023-03-02T23:53:37.091Z,26.40
2023-03-02T23:56:04.155Z,27.40
2023-03-02T23:58:30.884Z,31.40
